Orlando, Florida
Traffic Map
Current Weather Conditions
Orlando, Florida
Few Clouds Light Rain
Few Clouds
65°
Feels Like: 65°
Wind Chill: 65° Ceiling: Unl
Heat Index: 65° Visibility: 10mi
Dew Point: 52° Wind: 22mph
Humidity: 63% Direction: 280° (W)
Pressure: 29.92in Gusts: 29mph
Raw Report DataKORL 122353Z 28019G25KT 10SM -RA FEW035 FEW043 18/11 A2992 RMK AO2 PK WND 29029/2333 RAB34 SLP136 P0000 60000 T01830111 10239 20183 53014
Traffic Incident Summary
Active as of:
Severity:
Category:
InformationThere was an issue retrieving the traffic information for this location. Please try a different location or try again shortly.
Advertisements